• Join FlightAware (Why Join?)
  • Login
  • US Flag 
01:03AM EDT


 

Airport Tracker/Info


-or-


 

Live Flight TrackerFlight Track Log ✈ EGF3681 ✈ 05-May-2014 ✈ KORD - KDAY

Flight Track Log - Related Links

Times and Time Zones

All times are in EDT time to prevent confusion due to time zone crossing. See the EGF3681 flight status page for this flight to view local times or setup timezone preferences in your user account.

Time Position Orientation Groundspeed Altitude Reporting Facility
EDT Latitude Longitude Course Direction KTS MPH feet Rate Location/Type
11:04PM 41.6680 -87.3255 125° Southeast  Level Estimated
11:05PM 41.6158 -87.2291 126° Southeast  Level Estimated
11:06PM 41.5635 -87.1328 126° Southeast  Level Estimated
11:07PM 41.5112 -87.0367 126° Southeast  Level Estimated
11:08PM 41.4588 -86.9407 126° Southeast  Level Estimated
11:09PM 41.4063 -86.8449 126° Southeast  Level Estimated
11:10PM 41.3537 -86.7493 126° Southeast  Level Estimated
11:11PM 41.3010 -86.6538 126° Southeast  Level Estimated
11:12PM 41.2483 -86.5584 126° Southeast  Level Estimated
11:13PM 41.1955 -86.4633 126° Southeast  Level Estimated
11:14PM 41.1426 -86.3682 126° Southeast  Level Estimated
11:15PM 41.0896 -86.2733 127° Southeast  Level Estimated
11:16PM 41.0365 -86.1786 127° Southeast  Level Estimated
11:17PM 40.9834 -86.0840 127° Southeast  Level Estimated
11:18PM 40.9302 -85.9896 127° Southeast  Level Estimated
11:19PM 40.8769 -85.8953 127° Southeast  Level Estimated
11:20PM 40.8236 -85.8012 127° Southeast  Level Estimated
11:21PM 40.7701 -85.7073 127° Southeast  Level Estimated
11:22PM 40.7166 -85.6134 127° Southeast  Level Estimated
11:23PM 40.6631 -85.5198 127° Southeast  Level Estimated
11:24PM 40.6094 -85.4262 127° Southeast  Level Estimated
11:25PM 40.5557 -85.3329 127° Southeast  Level Estimated
11:26PM 40.5018 -85.2397 127° Southeast  Level Estimated
11:27PM 40.4480 -85.1466 127° Southeast  Level Estimated
11:28PM 40.3940 -85.0537 127° Southeast  Level Estimated
11:29PM 40.3400 -84.9609 127° Southeast  Level Estimated
11:30PM 40.2859 -84.8683 127° Southeast  Level Estimated
11:31PM 40.2317 -84.7758 127° Southeast  Level Estimated
11:32PM 40.1774 -84.6835 128° Southeast  Level Estimated
11:33PM 40.1231 -84.5913 128° Southeast  Level Estimated
11:34PM 40.0687 -84.4993 128° Southeast  Level Estimated
11:35PM 40.0142 -84.4074 128° Southeast  Level Estimated